createdAt,value
2022-10-05T00:04:32.602Z,1019.7689862920358
2022-10-05T00:17:44.051Z,1019.6870510420785
2022-10-05T00:28:37.578Z,1019.4956486537955
2022-10-05T00:35:05.041Z,1019.4140326100442
2022-10-05T00:43:03.222Z,1019.3981412050621
2022-10-05T00:49:54.936Z,1019.3485493252083
2022-10-05T00:56:24.142Z,1019.2512732003586
2022-10-05T01:02:52.283Z,1019.1685531884582
2022-10-05T01:09:21.784Z,1019.2105743284977
2022-10-05T01:15:50.909Z,1019.2464661230722
2022-10-05T01:33:29.376Z,1019.0788322094584
2022-10-05T01:40:10.866Z,1018.9532219778466
2022-10-05T01:46:39.558Z,1018.9597071527792
2022-10-05T01:53:10.688Z,1018.8836940427047
2022-10-05T01:59:39.885Z,1018.8071772140153
2022-10-05T02:06:07.306Z,1018.7381150974876
2022-10-05T02:13:45.897Z,1018.6741311617334
2022-10-05T02:20:14.563Z,1018.6227676482765
2022-10-05T02:26:42.743Z,1018.556760868541
2022-10-05T02:38:01.252Z,1018.3966581234662
2022-10-05T02:44:29.380Z,1018.4055469492653
2022-10-05T02:50:57.051Z,1018.4004645146426
2022-10-05T03:03:38.693Z,1018.2403989059159
2022-10-05T03:10:42.456Z,1018.1485057510097
2022-10-05T03:17:11.257Z,1018.1307300051307
2022-10-05T03:28:40.284Z,1017.9868802743606
2022-10-05T03:35:21.018Z,1017.9097892696632
2022-10-05T03:44:08.725Z,1018.048987992236
2022-10-05T03:50:39.053Z,1018.0242603698903
2022-10-05T03:57:11.757Z,1017.9155510203689
2022-10-05T04:03:42.966Z,1017.8734080696983
2022-10-05T04:10:30.406Z,1017.8695640734048
2022-10-05T04:17:02.120Z,1017.8704874894195
2022-10-05T04:23:42.184Z,1017.7966550094518
2022-10-05T04:31:46.397Z,1017.7819814620038
2022-10-05T04:38:19.935Z,1017.729197597334
2022-10-05T04:59:00.073Z,1017.6410071646499
2022-10-05T05:05:29.636Z,1017.6070482767351
2022-10-05T05:11:58.349Z,1017.6536830130682
2022-10-05T05:24:52.968Z,1017.6581680203568
2022-10-05T05:31:21.951Z,1017.5942788541377
2022-10-05T05:41:58.384Z,1017.5036911264854
2022-10-05T05:48:26.727Z,1017.4843315688659
2022-10-05T05:59:58.334Z,1017.4159252195215
2022-10-05T06:06:25.952Z,1017.38041465252
2022-10-05T06:12:53.408Z,1017.3171565632654
2022-10-05T06:19:20.750Z,1017.2828146145579
2022-10-05T06:32:06.581Z,1017.339502377224
2022-10-05T06:38:59.998Z,1017.4107300783204
2022-10-05T06:45:27.395Z,1017.4144214166735
2022-10-05T06:57:19.274Z,1017.2283175303344
2022-10-05T07:03:46.373Z,1017.3009968034282
2022-10-05T07:10:13.705Z,1017.3571404322423
2022-10-05T07:16:41.086Z,1017.5409961903622
2022-10-05T07:23:10.128Z,1017.5372933061403
2022-10-05T07:29:40.554Z,1017.4780675104989
2022-10-05T07:36:09.798Z,1017.528482817287
2022-10-05T07:42:47.392Z,1017.6074572316267
2022-10-05T07:56:29.441Z,1017.6297616523634
2022-10-05T08:03:00.582Z,1017.6449971930675
2022-10-05T08:09:27.550Z,1017.6596730150271
2022-10-05T08:15:54.694Z,1017.6570618439241
2022-10-05T08:22:23.311Z,1017.6262227307425
2022-10-05T08:29:00.793Z,1017.600983646277
2022-10-05T08:35:27.905Z,1017.5893530395666
2022-10-05T08:47:03.677Z,1017.5378541127711
2022-10-05T08:53:32.711Z,1017.5103734173307
2022-10-05T09:00:35.990Z,1017.478921628723
2022-10-05T09:07:03.281Z,1017.5067790792974
2022-10-05T09:13:33.198Z,1017.4827764339602
2022-10-05T09:20:07.401Z,1017.4632594969469
2022-10-05T09:26:46.712Z,1017.4231300461415
2022-10-05T09:33:14.063Z,1017.4440818055674
2022-10-05T09:39:45.089Z,1017.3499852795437
2022-10-05T09:46:34.732Z,1017.283468687741
2022-10-05T09:53:08.217Z,1017.252773461782
2022-10-05T10:08:13.764Z,1017.0691401681775
2022-10-05T10:14:42.378Z,1017.1051593613963
2022-10-05T10:21:13.078Z,1017.0558326258199
2022-10-05T10:30:16.687Z,1016.8732435806004
2022-10-05T10:36:47.026Z,1016.7599042802658
2022-10-05T10:43:20.420Z,1016.5987466077408
2022-10-05T10:49:50.393Z,1016.5665828070694
2022-10-05T11:02:13.824Z,1016.5484568787685
2022-10-05T11:13:44.565Z,1016.4222403313189
2022-10-05T11:20:12.424Z,1016.3139998489671
2022-10-05T11:26:53.794Z,1016.2577518328408
2022-10-05T11:34:20.869Z,1016.1721591316872
2022-10-05T11:44:07.096Z,1016.0698745964219
2022-10-05T11:50:34.326Z,1015.9966932286906
2022-10-05T11:57:02.438Z,1015.8711892616702
2022-10-05T12:06:04.195Z,1015.7531695436791
2022-10-05T12:17:04.253Z,1015.5818346804413
2022-10-05T12:23:33.093Z,1015.5219916680545
2022-10-05T12:30:07.130Z,1015.4683103550165
2022-10-05T12:41:09.792Z,1015.3158519733241
2022-10-05T12:47:37.580Z,1015.1636712022955
2022-10-05T13:00:28.083Z,1015.0429080557927
2022-10-05T13:08:25.122Z,1014.9906138437431
2022-10-05T13:14:53.431Z,1015.0225930241564
2022-10-05T13:21:21.514Z,1014.9774226274225
2022-10-05T13:28:01.221Z,1014.9518826599132
2022-10-05T13:44:22.280Z,1015.0300693229426
2022-10-05T13:50:50.321Z,1014.9994647380665
2022-10-05T13:57:19.629Z,1015.1355286387154
2022-10-05T14:15:56.373Z,1015.1919027210083
2022-10-05T14:22:26.853Z,1015.1967309824313
2022-10-05T14:30:39.397Z,1015.1499329606619
2022-10-05T14:37:25.338Z,1015.0510826307741
2022-10-05T14:43:56.361Z,1014.9620254048704
2022-10-05T14:50:27.713Z,1014.9310906504096
2022-10-05T14:56:57.917Z,1014.9551060819529
2022-10-05T15:03:28.701Z,1014.8767251756549
2022-10-05T15:09:59.144Z,1014.7152556622133
2022-10-05T15:16:29.245Z,1014.7088171111758
2022-10-05T15:23:05.396Z,1014.6043013108857
2022-10-05T15:34:32.328Z,1014.5662663822003
2022-10-05T15:41:01.936Z,1014.4782034266591
2022-10-05T15:52:55.326Z,1014.4243036782817
2022-10-05T15:59:26.098Z,1014.4434169374872
2022-10-05T16:05:56.971Z,1014.4960220247909
2022-10-05T16:12:28.952Z,1014.5267594638884
2022-10-05T16:26:58.925Z,1014.6299264851169
2022-10-05T16:33:26.347Z,1014.6697469988875
2022-10-05T16:39:54.495Z,1014.7229752359904
2022-10-05T16:46:27.510Z,1014.8530250348008
2022-10-05T16:57:28.006Z,1014.977122427298
2022-10-05T17:03:55.269Z,1015.0421682087762
2022-10-05T17:13:16.715Z,1015.0734909941511
2022-10-05T17:19:45.731Z,1015.0983189746
2022-10-05T17:26:14.036Z,1015.0946996879945
2022-10-05T17:32:53.652Z,1015.1058204955208
2022-10-05T17:39:22.269Z,1015.0847391616794
2022-10-05T17:45:49.922Z,1015.1379398263082
2022-10-05T17:52:17.075Z,1015.1792378476067
2022-10-05T17:58:44.450Z,1015.209806580135
2022-10-05T18:05:11.545Z,1015.2035117777668
2022-10-05T18:18:41.781Z,1015.2341387156258
2022-10-05T18:25:09.093Z,1015.2508729078163
2022-10-05T18:31:42.862Z,1015.1834407474672
2022-10-05T18:42:09.481Z,1015.2376159233764
2022-10-05T18:48:38.545Z,1015.2733647734601
2022-10-05T18:55:08.275Z,1015.3427335759321
2022-10-05T19:01:45.787Z,1015.3712621312848
2022-10-05T19:08:18.687Z,1015.3648557558942
2022-10-05T19:14:49.805Z,1015.3931119366589
2022-10-05T19:21:18.107Z,1015.4930895337761
2022-10-05T19:27:49.743Z,1015.5834709674215
2022-10-05T19:38:01.900Z,1015.7245515547928
2022-10-05T19:44:31.099Z,1015.8836042330184
2022-10-05T19:59:58.622Z,1015.971296788648
2022-10-05T20:06:26.757Z,1016.0599694432742
2022-10-05T20:12:55.227Z,1016.1255153715097
2022-10-05T20:19:24.969Z,1016.2543023260159
2022-10-05T20:27:25.253Z,1016.2661099111926
2022-10-05T20:34:01.032Z,1016.3472346109007
2022-10-05T20:40:29.394Z,1016.4478334318516
2022-10-05T20:52:13.311Z,1016.4659765504949
2022-10-05T20:58:40.977Z,1016.4665914265425
2022-10-05T21:12:15.743Z,1016.4638907899321
2022-10-05T21:18:43.466Z,1016.4061986649742
2022-10-05T21:27:23.519Z,1016.4170629633493
2022-10-05T21:40:10.712Z,1016.4999311213866
2022-10-05T21:46:39.677Z,1016.5246399631817
2022-10-05T21:53:07.589Z,1016.583994197531
2022-10-05T22:05:55.165Z,1016.7751923049816
2022-10-05T22:12:31.613Z,1016.9094753697916
2022-10-05T22:18:59.488Z,1017.1395882625206
2022-10-05T22:25:27.836Z,1017.6006166049841
2022-10-05T22:33:59.207Z,1018.1838762986193
2022-10-05T22:40:27.184Z,1018.0656229231645
2022-10-05T22:46:55.103Z,1018.1284356482541
2022-10-05T22:53:30.167Z,1018.3034163752133
2022-10-05T22:59:57.511Z,1018.3701236056776
2022-10-05T23:06:28.215Z,1018.4790344522352
2022-10-05T23:13:00.491Z,1018.6719783014039
2022-10-05T23:19:28.690Z,1018.7999470070675
2022-10-05T23:25:56.050Z,1018.9159885846448
2022-10-05T23:32:32.008Z,1019.145673926278
2022-10-05T23:38:59.163Z,1019.2542015403384
2022-10-05T23:45:26.506Z,1019.4660365695856
2022-10-05T23:51:53.716Z,1019.6458375470226
2022-10-05T23:58:21.632Z,1019.7574186181727
